Time;durP1;ratioP1;P1;durP2;ratioP2;P2;SDS_P1;SDS_P2;PMS_P1;PMS_P2;Temp;Humidity;BMP_temperature;BMP_pressure;BME280_temperature;BME280_humidity;BME280_pressure;Samples;Min_cycle;Max_cycle;Signal;HPM_P1;HPM_P2
2023/11/29 00:00:14;;;;;;;4.35;4.05;;;;;;;;;;5047789;28;20053;-62
2023/11/29 00:02:42;;;;;;;4.90;4.50;;;;;;;;;;5042760;28;20273;-62
2023/11/29 00:05:12;;;;;;;4.25;3.95;;;;;;;;;;5044461;28;20047;-61
2023/11/29 00:07:43;;;;;;;4.03;3.72;;;;;;;;;;5050125;28;20072;-62
2023/11/29 00:10:12;;;;;;;4.40;4.10;;;;;;;;;;5048347;28;20059;-61
2023/11/29 00:12:41;;;;;;;4.78;4.38;;;;;;;;;;5045677;28;20053;-64
2023/11/29 00:15:11;;;;;;;4.35;4.05;;;;;;;;;;5040954;28;20476;-64
2023/11/29 00:17:39;;;;;;;4.82;4.53;;;;;;;;;;5047153;28;20077;-62
2023/11/29 00:20:08;;;;;;;4.88;4.47;;;;;;;;;;5038675;28;20123;-60
2023/11/29 00:22:38;;;;;;;4.60;4.30;;;;;;;;;;5047238;28;20055;-59
2023/11/29 00:25:07;;;;;;;4.47;4.15;;;;;;;;;;5048776;28;20041;-61
2023/11/29 00:27:37;;;;;;;3.83;3.53;;;;;;;;;;5043434;28;20102;-60
2023/11/29 00:30:06;;;;;;;4.60;4.30;;;;;;;;;;5040991;28;20103;-60
2023/11/29 00:32:34;;;;;;;4.55;4.15;;;;;;;;;;5049423;28;20041;-61
2023/11/29 00:35:03;;;;;;;3.78;3.58;;;;;;;;;;5045008;28;20707;-63
2023/11/29 00:37:31;;;;;;;4.43;4.13;;;;;;;;;;5045019;28;20077;-61
2023/11/29 00:40:00;;;;;;;4.00;3.70;;;;;;;;;;5047970;28;20117;-60
2023/11/29 00:42:28;;;;;;;4.78;4.38;;;;;;;;;;5048537;28;20041;-61
2023/11/29 00:44:58;;;;;;;4.25;3.95;;;;;;;;;;5048874;28;20052;-63
2023/11/29 00:47:27;;;;;;;4.05;3.75;;;;;;;;;;5047658;28;20102;-61
2023/11/29 00:49:55;;;;;;;4.13;3.85;;;;;;;;;;5048011;28;20056;-60
2023/11/29 00:52:23;;;;;;;4.65;4.25;;;;;;;;;;5043171;28;20041;-61
2023/11/29 00:54:52;;;;;;;3.65;3.45;;;;;;;;;;5045658;28;20042;-61
2023/11/29 00:57:20;;;;;;;4.28;3.97;;;;;;;;;;5047444;28;20061;-61
2023/11/29 00:59:48;;;;;;;3.53;3.33;;;;;;;;;;5043882;28;20154;-62
2023/11/29 01:02:18;;;;;;;4.20;4.00;;;;;;;;;;5041934;28;20494;-61
2023/11/29 01:04:47;;;;;;;4.72;4.43;;;;;;;;;;5045027;28;20052;-60
2023/11/29 01:07:15;;;;;;;4.10;3.80;;;;;;;;;;5043594;28;20114;-60
2023/11/29 01:09:44;;;;;;;4.60;4.30;;;;;;;;;;5045303;28;20099;-62
2023/11/29 01:12:13;;;;;;;4.22;3.92;;;;;;;;;;5045301;28;20060;-61
2023/11/29 01:14:41;;;;;;;4.95;4.65;;;;;;;;;;5045083;28;20081;-60
2023/11/29 01:17:09;;;;;;;4.22;3.92;;;;;;;;;;5043280;28;20045;-64
2023/11/29 01:19:39;;;;;;;4.50;4.20;;;;;;;;;;5044407;28;20552;-62
2023/11/29 01:22:08;;;;;;;4.72;4.43;;;;;;;;;;5047249;28;20076;-60
2023/11/29 01:24:36;;;;;;;3.92;3.63;;;;;;;;;;5046187;28;20044;-61
2023/11/29 01:27:05;;;;;;;4.07;3.78;;;;;;;;;;5047050;28;20144;-61
2023/11/29 01:29:33;;;;;;;5.10;4.70;;;;;;;;;;5042105;28;20461;-62
2023/11/29 01:32:01;;;;;;;5.05;4.75;;;;;;;;;;5046390;28;20049;-62
2023/11/29 01:34:30;;;;;;;4.47;4.10;;;;;;;;;;5045711;28;20115;-62
2023/11/29 01:37:00;;;;;;;4.38;4.07;;;;;;;;;;5046641;28;20076;-62
2023/11/29 01:39:28;;;;;;;4.43;4.13;;;;;;;;;;5044333;28;20119;-61
2023/11/29 01:41:57;;;;;;;4.55;4.25;;;;;;;;;;5048836;28;20081;-61
2023/11/29 01:44:25;;;;;;;4.53;4.18;;;;;;;;;;5041701;28;20057;-62
2023/11/29 01:46:54;;;;;;;5.47;4.05;;;;;;;;;;5044046;28;20084;-61
2023/11/29 01:49:23;;;;;;;4.60;4.30;;;;;;;;;;5047021;28;21193;-61
2023/11/29 01:51:51;;;;;;;4.30;4.00;;;;;;;;;;5043139;28;20460;-60
2023/11/29 01:54:21;;;;;;;4.30;3.95;;;;;;;;;;5047043;28;20095;-61
2023/11/29 01:56:50;;;;;;;4.25;3.95;;;;;;;;;;5046674;28;20056;-63
2023/11/29 01:59:20;;;;;;;5.05;4.65;;;;;;;;;;5042859;28;20102;-60
2023/11/29 02:01:49;;;;;;;4.88;4.55;;;;;;;;;;5043086;28;20076;-62
2023/11/29 02:04:18;;;;;;;4.75;4.45;;;;;;;;;;5043292;28;20041;-64
2023/11/29 02:06:47;;;;;;;4.22;3.92;;;;;;;;;;5046506;28;20071;-62
2023/11/29 02:09:15;;;;;;;5.10;4.70;;;;;;;;;;5042219;28;20053;-63
2023/11/29 02:11:46;;;;;;;5.63;5.22;;;;;;;;;;5046957;28;20099;-61
2023/11/29 02:14:15;;;;;;;5.00;4.70;;;;;;;;;;5040811;28;20123;-62
2023/11/29 02:16:43;;;;;;;4.40;4.10;;;;;;;;;;5039496;28;20049;-60
2023/11/29 02:19:12;;;;;;;5.18;4.78;;;;;;;;;;5041362;28;20290;-60
2023/11/29 02:21:40;;;;;;;4.85;4.45;;;;;;;;;;5041908;28;20052;-61
2023/11/29 02:24:12;;;;;;;4.32;4.03;;;;;;;;;;5047883;28;20048;-65
2023/11/29 02:26:41;;;;;;;5.20;4.80;;;;;;;;;;5045704;28;20090;-65
2023/11/29 02:29:10;;;;;;;5.07;4.68;;;;;;;;;;5045134;28;20049;-61
2023/11/29 02:31:38;;;;;;;4.40;4.10;;;;;;;;;;5045739;28;20506;-60
2023/11/29 02:34:07;;;;;;;4.63;4.28;;;;;;;;;;5044057;28;20045;-61
2023/11/29 02:36:35;;;;;;;5.47;5.00;;;;;;;;;;5038649;28;20052;-63
2023/11/29 02:39:04;;;;;;;4.90;4.50;;;;;;;;;;5044486;28;20041;-64
2023/11/29 02:41:32;;;;;;;4.90;4.50;;;;;;;;;;5043958;28;20375;-61
2023/11/29 02:44:02;;;;;;;4.30;4.00;;;;;;;;;;5044392;28;20041;-61
2023/11/29 02:46:30;;;;;;;4.82;4.53;;;;;;;;;;5045412;28;20085;-62
2023/11/29 02:48:59;;;;;;;4.72;4.30;;;;;;;;;;5042191;28;20048;-64
2023/11/29 02:51:27;;;;;;;5.05;4.63;;;;;;;;;;5045631;28;20132;-62
2023/11/29 02:53:56;;;;;;;5.13;4.80;;;;;;;;;;5049386;28;20114;-62
2023/11/29 02:56:24;;;;;;;4.53;4.22;;;;;;;;;;5048759;28;20073;-61
2023/11/29 02:58:52;;;;;;;4.25;3.85;;;;;;;;;;5046052;28;20064;-61
2023/11/29 03:01:22;;;;;;;4.35;3.95;;;;;;;;;;5047969;28;20284;-61
2023/11/29 03:03:51;;;;;;;5.13;4.72;;;;;;;;;;5042126;28;20132;-61
2023/11/29 03:06:19;;;;;;;5.43;5.03;;;;;;;;;;5051102;28;20103;-62
2023/11/29 03:08:47;;;;;;;4.60;4.30;;;;;;;;;;5046265;28;20483;-61
2023/11/29 03:11:16;;;;;;;4.90;4.32;;;;;;;;;;5047600;28;20073;-60
2023/11/29 03:13:45;;;;;;;5.25;4.85;;;;;;;;;;5048232;28;20588;-61
2023/11/29 03:16:13;;;;;;;4.93;4.60;;;;;;;;;;5049613;28;20045;-63
2023/11/29 03:18:43;;;;;;;5.50;5.07;;;;;;;;;;5045662;28;20132;-64
2023/11/29 03:21:11;;;;;;;5.65;5.15;;;;;;;;;;5041449;28;20053;-61
2023/11/29 03:23:39;;;;;;;5.53;5.13;;;;;;;;;;5050182;28;20080;-64
2023/11/29 03:26:09;;;;;;;6.45;5.93;;;;;;;;;;5050928;28;20259;-61
2023/11/29 03:28:38;;;;;;;5.93;5.35;;;;;;;;;;5045445;28;20056;-61
2023/11/29 03:31:06;;;;;;;5.50;5.10;;;;;;;;;;5048482;28;20486;-61
2023/11/29 03:33:34;;;;;;;5.70;5.20;;;;;;;;;;5047340;28;20052;-62
2023/11/29 03:36:04;;;;;;;5.32;4.93;;;;;;;;;;5050027;28;20045;-61
2023/11/29 03:38:32;;;;;;;5.75;5.25;;;;;;;;;;5050243;28;20056;-61
2023/11/29 03:41:00;;;;;;;7.00;6.40;;;;;;;;;;5045421;28;20059;-62
2023/11/29 03:43:29;;;;;;;5.70;5.20;;;;;;;;;;5045980;28;20045;-63
2023/11/29 03:45:57;;;;;;;5.90;5.40;;;;;;;;;;5044111;28;20060;-64
2023/11/29 03:48:25;;;;;;;5.75;5.25;;;;;;;;;;5046432;28;20048;-60
2023/11/29 03:50:54;;;;;;;6.78;6.15;;;;;;;;;;5044057;28;20236;-63
2023/11/29 03:53:23;;;;;;;6.88;6.18;;;;;;;;;;5043275;28;20045;-63
2023/11/29 03:55:52;;;;;;;7.22;6.53;;;;;;;;;;5044410;28;20041;-61
2023/11/29 03:58:20;;;;;;;6.30;5.78;;;;;;;;;;5046927;28;20041;-63
2023/11/29 04:00:49;;;;;;;6.28;5.68;;;;;;;;;;5048732;28;20126;-62
2023/11/29 04:03:17;;;;;;;6.10;5.50;;;;;;;;;;5046700;28;20595;-63
2023/11/29 04:05:46;;;;;;;5.82;5.25;;;;;;;;;;5045317;28;20045;-62
2023/11/29 04:08:14;;;;;;;5.65;5.15;;;;;;;;;;5048583;28;20067;-62
2023/11/29 04:10:44;;;;;;;6.03;5.53;;;;;;;;;;5049629;28;20049;-61
2023/11/29 04:13:12;;;;;;;5.53;4.97;;;;;;;;;;5045267;28;20050;-63
2023/11/29 04:15:41;;;;;;;6.60;6.00;;;;;;;;;;5041683;28;20073;-63
2023/11/29 04:18:09;;;;;;;5.63;5.13;;;;;;;;;;5044146;28;20240;-65
2023/11/29 04:20:38;;;;;;;6.32;5.72;;;;;;;;;;5046310;28;20049;-65
2023/11/29 04:23:06;;;;;;;6.55;5.95;;;;;;;;;;5044171;28;20052;-64
2023/11/29 04:25:34;;;;;;;6.05;5.47;;;;;;;;;;5044461;28;20040;-62
2023/11/29 04:28:04;;;;;;;6.55;5.85;;;;;;;;;;5044372;28;20049;-63
2023/11/29 04:30:33;;;;;;;6.00;5.50;;;;;;;;;;5046495;28;20060;-64
2023/11/29 04:33:01;;;;;;;6.43;5.50;;;;;;;;;;5045584;28;20047;-62
2023/11/29 04:35:30;;;;;;;7.15;6.47;;;;;;;;;;5047038;28;20064;-61
2023/11/29 04:37:58;;;;;;;5.93;5.43;;;;;;;;;;5048030;28;20521;-61
2023/11/29 04:40:27;;;;;;;6.32;5.72;;;;;;;;;;5045305;28;20041;-62
2023/11/29 04:42:55;;;;;;;6.65;6.05;;;;;;;;;;5034321;28;20057;-63
2023/11/29 04:45:25;;;;;;;6.38;5.78;;;;;;;;;;5047919;28;20095;-64
2023/11/29 04:47:53;;;;;;;7.90;6.80;;;;;;;;;;5000666;28;1172269;-63
2023/11/29 04:50:21;;;;;;;7.00;6.35;;;;;;;;;;5045694;28;20053;-61
2023/11/29 04:52:50;;;;;;;6.70;5.80;;;;;;;;;;5044217;28;20579;-60
2023/11/29 04:55:18;;;;;;;6.30;5.72;;;;;;;;;;5044068;28;20291;-61
2023/11/29 04:57:47;;;;;;;6.93;6.32;;;;;;;;;;5045127;28;20045;-61
2023/11/29 05:00:16;;;;;;;6.45;5.60;;;;;;;;;;5041049;28;20595;-58
2023/11/29 05:02:45;;;;;;;6.22;5.68;;;;;;;;;;5043122;28;20036;-59
2023/11/29 05:05:14;;;;;;;6.15;5.53;;;;;;;;;;5044457;28;20051;-61
2023/11/29 05:07:43;;;;;;;5.97;5.47;;;;;;;;;;5043165;28;20060;-60
2023/11/29 05:10:11;;;;;;;7.18;6.57;;;;;;;;;;5044829;28;20069;-64
2023/11/29 05:12:42;;;;;;;6.18;5.57;;;;;;;;;;5044625;28;20052;-62
2023/11/29 05:15:10;;;;;;;7.00;6.30;;;;;;;;;;5039063;28;20384;-62
2023/11/29 05:17:47;;;;;;;6.70;6.10;;;;;;;;;;5042641;28;20045;-63
2023/11/29 05:20:16;;;;;;;6.78;5.97;;;;;;;;;;5043442;28;20068;-62
2023/11/29 05:22:44;;;;;;;6.50;5.90;;;;;;;;;;5043252;28;20059;-62
2023/11/29 05:25:13;;;;;;;5.30;4.80;;;;;;;;;;5045449;28;20132;-62
2023/11/29 05:27:42;;;;;;;5.72;5.07;;;;;;;;;;5043539;28;20106;-62
2023/11/29 05:30:10;;;;;;;7.15;6.47;;;;;;;;;;5035678;28;20048;-64
2023/11/29 05:32:39;;;;;;;6.05;5.55;;;;;;;;;;5046468;28;20106;-65
2023/11/29 05:35:09;;;;;;;5.35;4.90;;;;;;;;;;5037411;28;20482;-64
2023/11/29 05:37:37;;;;;;;6.18;5.57;;;;;;;;;;5044030;28;20057;-61
2023/11/29 05:40:08;;;;;;;6.45;5.85;;;;;;;;;;5041830;28;20059;-61
2023/11/29 05:42:38;;;;;;;5.88;5.38;;;;;;;;;;5034224;28;20137;-64
2023/11/29 05:45:07;;;;;;;5.72;5.13;;;;;;;;;;5036690;28;20044;-62
2023/11/29 05:47:36;;;;;;;6.22;5.72;;;;;;;;;;5041793;28;20044;-64
2023/11/29 05:50:05;;;;;;;5.60;5.10;;;;;;;;;;5037899;28;20060;-63
2023/11/29 05:52:34;;;;;;;5.85;5.30;;;;;;;;;;5041700;28;20069;-60
2023/11/29 05:55:03;;;;;;;6.20;5.60;;;;;;;;;;5041083;28;20126;-60
2023/11/29 05:57:31;;;;;;;5.53;4.70;;;;;;;;;;5044017;28;20490;-60
2023/11/29 06:00:08;;;;;;;6.57;5.97;;;;;;;;;;5037155;28;20147;-60
2023/11/29 06:02:55;;;;;;;5.63;5.13;;;;;;;;;;5043350;28;20045;-62
2023/11/29 06:05:24;;;;;;;6.30;5.72;;;;;;;;;;5044644;28;20041;-60
2023/11/29 06:07:54;;;;;;;8.77;6.05;;;;;;;;;;5041504;28;20049;-60
2023/11/29 06:10:22;;;;;;;5.88;5.35;;;;;;;;;;5037094;28;20045;-61
2023/11/29 06:12:51;;;;;;;5.78;5.28;;;;;;;;;;5047141;28;20065;-60
2023/11/29 06:15:19;;;;;;;6.15;5.55;;;;;;;;;;5040058;28;20049;-61
2023/11/29 06:17:48;;;;;;;6.15;5.63;;;;;;;;;;5034424;28;20494;-59
2023/11/29 06:20:18;;;;;;;5.57;5.07;;;;;;;;;;5042481;28;20086;-60
2023/11/29 06:22:47;;;;;;;6.43;5.68;;;;;;;;;;5038654;28;20319;-62
2023/11/29 06:25:17;;;;;;;5.50;5.03;;;;;;;;;;5041901;28;20052;-59
2023/11/29 06:27:45;;;;;;;6.70;5.60;;;;;;;;;;5040037;28;20057;-60
2023/11/29 06:30:16;;;;;;;5.55;5.05;;;;;;;;;;5043435;28;20684;-59
2023/11/29 06:32:45;;;;;;;5.32;4.75;;;;;;;;;;5042003;28;20462;-60
2023/11/29 06:35:13;;;;;;;6.05;5.55;;;;;;;;;;5041161;28;20045;-61
2023/11/29 06:37:45;;;;;;;5.80;5.30;;;;;;;;;;5045109;28;20498;-61
2023/11/29 06:40:22;;;;;;;7.97;5.70;;;;;;;;;;5047254;28;20597;-59
2023/11/29 06:42:50;;;;;;;6.30;5.80;;;;;;;;;;5034817;28;20056;-59
2023/11/29 06:45:19;;;;;;;6.40;5.88;;;;;;;;;;5045491;28;20099;-62
2023/11/29 06:47:48;;;;;;;5.47;4.88;;;;;;;;;;5043955;28;20530;-58
2023/11/29 06:50:17;;;;;;;6.55;5.40;;;;;;;;;;5040649;28;20525;-61
2023/11/29 06:52:45;;;;;;;5.10;4.63;;;;;;;;;;5040982;28;20140;-58
2023/11/29 06:55:15;;;;;;;8.27;5.40;;;;;;;;;;5039145;28;20069;-60
2023/11/29 06:57:45;;;;;;;6.82;5.70;;;;;;;;;;5043181;28;20421;-61
2023/11/29 07:00:16;;;;;;;5.72;5.22;;;;;;;;;;5047195;28;20085;-58
2023/11/29 07:02:45;;;;;;;5.95;5.35;;;;;;;;;;5036287;28;20122;-59
2023/11/29 07:05:14;;;;;;;6.05;5.45;;;;;;;;;;5038628;28;20111;-61
2023/11/29 07:07:42;;;;;;;5.07;4.68;;;;;;;;;;5044526;28;20509;-61
2023/11/29 07:10:11;;;;;;;6.25;5.30;;;;;;;;;;5038354;28;20082;-60
2023/11/29 07:12:39;;;;;;;5.93;5.38;;;;;;;;;;5047524;28;20546;-59
2023/11/29 07:15:09;;;;;;;6.70;6.00;;;;;;;;;;5047728;28;20045;-60
2023/11/29 07:17:38;;;;;;;6.93;6.22;;;;;;;;;;5047483;28;20141;-59
2023/11/29 07:20:07;;;;;;;8.38;6.25;;;;;;;;;;5046328;28;20344;-61
2023/11/29 07:22:37;;;;;;;7.35;5.78;;;;;;;;;;5033572;28;20112;-60
2023/11/29 07:25:06;;;;;;;5.47;5.03;;;;;;;;;;5044965;28;20518;-58
2023/11/29 07:27:35;;;;;;;6.18;5.47;;;;;;;;;;5030320;28;20073;-59
2023/11/29 07:30:03;;;;;;;5.93;5.30;;;;;;;;;;5035427;28;20065;-59
2023/11/29 07:32:33;;;;;;;5.95;5.20;;;;;;;;;;5039810;28;20060;-63
2023/11/29 07:35:02;;;;;;;6.97;5.70;;;;;;;;;;5043374;28;20095;-59
2023/11/29 07:37:30;;;;;;;5.80;5.18;;;;;;;;;;5043524;28;20045;-59
2023/11/29 07:39:59;;;;;;;5.93;5.10;;;;;;;;;;5048197;28;20760;-62
2023/11/29 07:42:27;;;;;;;5.53;5.03;;;;;;;;;;5039448;28;20041;-61
2023/11/29 07:44:56;;;;;;;5.82;5.22;;;;;;;;;;5050333;28;20049;-59
2023/11/29 07:47:24;;;;;;;6.05;5.47;;;;;;;;;;5049610;28;20486;-60
2023/11/29 07:49:54;;;;;;;5.15;4.70;;;;;;;;;;5047459;28;20135;-60
2023/11/29 07:52:23;;;;;;;6.55;5.22;;;;;;;;;;5039194;28;20045;-59
2023/11/29 07:54:51;;;;;;;6.00;5.50;;;;;;;;;;5045945;28;20072;-60
2023/11/29 07:57:19;;;;;;;6.57;5.97;;;;;;;;;;5047356;28;20697;-60
2023/11/29 07:59:48;;;;;;;6.82;6.22;;;;;;;;;;5045138;28;20053;-62
2023/11/29 08:02:16;;;;;;;5.65;5.13;;;;;;;;;;5049277;28;20156;-59
2023/11/29 08:04:45;;;;;;;5.35;4.95;;;;;;;;;;5049742;28;20084;-58
2023/11/29 08:07:15;;;;;;;5.22;4.65;;;;;;;;;;5047159;28;20430;-59
2023/11/29 08:09:44;;;;;;;5.00;4.50;;;;;;;;;;5049145;28;20094;-61
2023/11/29 08:12:14;;;;;;;5.72;5.13;;;;;;;;;;5047443;28;20294;-61
2023/11/29 08:14:42;;;;;;;5.55;5.05;;;;;;;;;;5049575;28;20056;-60
2023/11/29 08:17:10;;;;;;;5.03;4.53;;;;;;;;;;5046500;28;20044;-66
2023/11/29 08:19:39;;;;;;;5.57;4.40;;;;;;;;;;5036006;28;20060;-61
2023/11/29 08:22:08;;;;;;;5.05;4.65;;;;;;;;;;5049970;28;20076;-59
2023/11/29 08:24:37;;;;;;;5.28;4.82;;;;;;;;;;5050829;28;20056;-62
2023/11/29 08:27:07;;;;;;;4.65;4.25;;;;;;;;;;5050180;28;20045;-59
2023/11/29 08:29:36;;;;;;;4.95;4.53;;;;;;;;;;5050452;28;20280;-60
2023/11/29 08:32:05;;;;;;;4.68;4.28;;;;;;;;;;5040930;28;20060;-59
2023/11/29 08:34:33;;;;;;;4.88;4.47;;;;;;;;;;5042011;28;20124;-63
2023/11/29 08:37:02;;;;;;;5.32;4.82;;;;;;;;;;5048888;28;20166;-61
2023/11/29 08:39:30;;;;;;;4.47;4.15;;;;;;;;;;5050341;28;20049;-60
2023/11/29 08:42:00;;;;;;;4.82;4.43;;;;;;;;;;5046080;28;20136;-60
2023/11/29 08:44:28;;;;;;;5.10;4.68;;;;;;;;;;5050360;28;20224;-59
2023/11/29 08:46:57;;;;;;;5.43;4.97;;;;;;;;;;5048805;28;20060;-62
2023/11/29 08:49:25;;;;;;;5.80;5.25;;;;;;;;;;5049732;28;20072;-64
2023/11/29 08:51:54;;;;;;;5.22;4.72;;;;;;;;;;5041228;28;20057;-60
2023/11/29 08:54:24;;;;;;;3.80;3.50;;;;;;;;;;5037647;28;20052;-61
2023/11/29 08:56:53;;;;;;;4.60;4.30;;;;;;;;;;5049959;28;20136;-59
2023/11/29 08:59:22;;;;;;;4.50;4.20;;;;;;;;;;5048681;28;20045;-62
2023/11/29 09:01:52;;;;;;;4.57;4.28;;;;;;;;;;5037566;28;20045;-60
2023/11/29 09:04:21;;;;;;;4.25;3.97;;;;;;;;;;5049386;28;20486;-60
2023/11/29 09:06:50;;;;;;;4.90;4.43;;;;;;;;;;5045241;28;20330;-59
2023/11/29 09:09:18;;;;;;;4.57;4.28;;;;;;;;;;5046278;28;20057;-60
2023/11/29 09:11:47;;;;;;;4.32;3.97;;;;;;;;;;5043584;28;20052;-63
2023/11/29 09:14:15;;;;;;;4.32;4.03;;;;;;;;;;5049207;28;20539;-59
2023/11/29 09:16:45;;;;;;;3.97;3.67;;;;;;;;;;5049376;28;20072;-59
2023/11/29 09:19:14;;;;;;;4.60;4.30;;;;;;;;;;5049203;28;20051;-60
2023/11/29 09:25:05;;;;;;;3.58;3.38;;;;;;;;;;5045154;28;20630;-60
2023/11/29 09:27:34;;;;;;;4.22;3.90;;;;;;;;;;5040797;28;20491;-60
2023/11/29 09:30:02;;;;;;;4.38;4.07;;;;;;;;;;5049375;28;20461;-61
2023/11/29 09:32:35;;;;;;;4.50;4.00;;;;;;;;;;5049496;28;20083;-64
2023/11/29 09:35:04;;;;;;;4.72;4.32;;;;;;;;;;5049091;28;20520;-61
2023/11/29 09:37:33;;;;;;;4.10;3.80;;;;;;;;;;5044938;28;20041;-59
2023/11/29 09:40:03;;;;;;;4.22;3.88;;;;;;;;;;5040738;28;20155;-61
2023/11/29 09:42:32;;;;;;;3.70;3.50;;;;;;;;;;5043048;28;20044;-61
2023/11/29 09:45:01;;;;;;;4.40;4.03;;;;;;;;;;5041125;28;20041;-63
2023/11/29 09:47:30;;;;;;;4.25;3.95;;;;;;;;;;5047759;28;20087;-63
2023/11/29 09:50:00;;;;;;;3.78;3.47;;;;;;;;;;5043829;28;20049;-60
2023/11/29 09:52:28;;;;;;;4.20;3.95;;;;;;;;;;5042842;28;20037;-61
2023/11/29 09:54:57;;;;;;;4.32;4.03;;;;;;;;;;5046773;28;20052;-61
2023/11/29 09:57:25;;;;;;;4.13;3.83;;;;;;;;;;5048044;28;20135;-60
2023/11/29 09:59:55;;;;;;;4.35;4.00;;;;;;;;;;5040867;28;20077;-61
2023/11/29 10:02:24;;;;;;;4.00;3.60;;;;;;;;;;5043099;28;20060;-61
2023/11/29 10:04:53;;;;;;;4.40;4.07;;;;;;;;;;5046920;28;20051;-61
2023/11/29 10:07:23;;;;;;;4.63;4.20;;;;;;;;;;5045128;28;20140;-61
2023/11/29 10:09:52;;;;;;;3.67;3.47;;;;;;;;;;5048673;28;20049;-61
2023/11/29 10:12:21;;;;;;;4.15;3.85;;;;;;;;;;5041985;28;20103;-61
2023/11/29 10:14:49;;;;;;;5.65;3.80;;;;;;;;;;5041764;28;20468;-60
2023/11/29 10:17:28;;;;;;;4.10;3.80;;;;;;;;;;5044000;28;20045;-62
2023/11/29 10:19:57;;;;;;;4.25;3.85;;;;;;;;;;5046900;28;20077;-61
2023/11/29 10:22:27;;;;;;;3.85;3.55;;;;;;;;;;5048430;28;20099;-60
2023/11/29 10:24:55;;;;;;;4.45;4.00;;;;;;;;;;5044866;28;20084;-61
2023/11/29 10:27:23;;;;;;;3.65;3.45;;;;;;;;;;5048509;28;20072;-61
2023/11/29 10:29:52;;;;;;;3.58;3.38;;;;;;;;;;5038406;28;20053;-62
2023/11/29 10:32:20;;;;;;;4.25;3.85;;;;;;;;;;5040237;28;20045;-60
2023/11/29 10:34:50;;;;;;;4.50;4.10;;;;;;;;;;5045426;28;20091;-62
2023/11/29 10:37:19;;;;;;;4.07;3.60;;;;;;;;;;5047967;28;20214;-60
2023/11/29 10:39:51;;;;;;;4.55;4.25;;;;;;;;;;5046632;28;20225;-60
2023/11/29 10:42:20;;;;;;;4.20;3.90;;;;;;;;;;5048487;28;20077;-59
2023/11/29 10:44:49;;;;;;;3.85;3.55;;;;;;;;;;5048705;28;20057;-61
2023/11/29 10:47:20;;;;;;;3.88;3.53;;;;;;;;;;5041236;28;20049;-61
2023/11/29 10:49:51;;;;;;;3.97;3.67;;;;;;;;;;5046219;28;20046;-62
2023/11/29 10:52:19;;;;;;;4.32;4.03;;;;;;;;;;5046759;28;20469;-61
2023/11/29 10:54:50;;;;;;;4.20;3.90;;;;;;;;;;5040650;28;20049;-59
2023/11/29 10:57:21;;;;;;;4.07;3.80;;;;;;;;;;5047673;28;20081;-60
2023/11/29 10:59:53;;;;;;;5.45;4.25;;;;;;;;;;5046232;28;20053;-61
2023/11/29 11:02:23;;;;;;;4.43;4.13;;;;;;;;;;5038153;28;20598;-60
2023/11/29 11:05:05;;;;;;;3.70;3.47;;;;;;;;;;5043677;28;20410;-60
2023/11/29 11:07:41;;;;;;;4.30;4.00;;;;;;;;;;5032566;28;20056;-63
2023/11/29 11:10:11;;;;;;;4.20;3.88;;;;;;;;;;5049648;28;20045;-60
2023/11/29 11:12:40;;;;;;;4.40;4.10;;;;;;;;;;5041307;28;20115;-60
2023/11/29 11:15:13;;;;;;;4.70;4.35;;;;;;;;;;5047613;28;20056;-62
2023/11/29 11:17:42;;;;;;;3.65;3.35;;;;;;;;;;5051388;28;20131;-62
2023/11/29 11:20:11;;;;;;;3.38;3.15;;;;;;;;;;5045384;28;20263;-60
2023/11/29 11:22:41;;;;;;;4.43;4.13;;;;;;;;;;5051180;28;20060;-63
2023/11/29 11:25:12;;;;;;;4.45;4.15;;;;;;;;;;5046220;28;20461;-61
2023/11/29 11:27:41;;;;;;;4.25;3.95;;;;;;;;;;5051340;28;20059;-61
2023/11/29 11:30:34;;;;;;;4.10;3.80;;;;;;;;;;5046505;28;20099;-63
2023/11/29 11:33:02;;;;;;;3.50;3.22;;;;;;;;;;5051293;28;20153;-62
2023/11/29 11:35:34;;;;;;;4.45;4.05;;;;;;;;;;5050279;28;20072;-61
2023/11/29 11:38:06;;;;;;;4.05;3.75;;;;;;;;;;5047924;28;20083;-61
2023/11/29 11:40:37;;;;;;;4.03;3.72;;;;;;;;;;5045863;28;20557;-62
2023/11/29 11:43:07;;;;;;;6.55;3.67;;;;;;;;;;5050981;28;20348;-61
2023/11/29 11:45:36;;;;;;;3.90;3.60;;;;;;;;;;5042359;28;20098;-60
2023/11/29 11:48:05;;;;;;;5.03;4.13;;;;;;;;;;5050801;28;20079;-61
2023/11/29 11:50:35;;;;;;;3.78;3.47;;;;;;;;;;5050900;28;20514;-62
2023/11/29 11:53:05;;;;;;;4.30;4.00;;;;;;;;;;5044872;28;20649;-60
2023/11/29 11:55:39;;;;;;;3.45;3.25;;;;;;;;;;5048243;28;20056;-65
2023/11/29 11:58:09;;;;;;;4.10;3.78;;;;;;;;;;5047169;28;20076;-60
2023/11/29 12:00:39;;;;;;;4.13;3.72;;;;;;;;;;5049934;28;20052;-61
2023/11/29 12:03:07;;;;;;;4.13;3.83;;;;;;;;;;5050585;28;20041;-62
2023/11/29 12:05:36;;;;;;;3.95;3.65;;;;;;;;;;5045432;28;20057;-62
2023/11/29 12:08:06;;;;;;;4.70;4.40;;;;;;;;;;5045491;28;20141;-61
2023/11/29 12:10:36;;;;;;;4.13;3.83;;;;;;;;;;5047277;28;20057;-61
2023/11/29 12:13:04;;;;;;;4.50;3.92;;;;;;;;;;5049668;28;20104;-61
2023/11/29 12:15:34;;;;;;;3.45;3.15;;;;;;;;;;5046617;28;20045;-63
2023/11/29 12:18:03;;;;;;;3.80;3.50;;;;;;;;;;5049166;28;20069;-62
2023/11/29 12:20:32;;;;;;;3.50;3.20;;;;;;;;;;5043547;28;20057;-59
2023/11/29 12:23:04;;;;;;;4.30;3.88;;;;;;;;;;5050422;28;20087;-58
2023/11/29 12:25:32;;;;;;;3.65;3.45;;;;;;;;;;5050523;28;20083;-61
2023/11/29 12:28:02;;;;;;;3.72;3.42;;;;;;;;;;5038720;28;20049;-60
2023/11/29 12:30:31;;;;;;;3.58;3.30;;;;;;;;;;5050375;28;20049;-61
2023/11/29 12:32:59;;;;;;;3.42;3.15;;;;;;;;;;5044454;28;20045;-63
2023/11/29 12:35:28;;;;;;;3.47;3.28;;;;;;;;;;5041060;28;20380;-66
2023/11/29 12:37:56;;;;;;;3.53;3.33;;;;;;;;;;5049747;28;20045;-63
2023/11/29 12:40:25;;;;;;;5.28;3.15;;;;;;;;;;5050062;28;20098;-62
2023/11/29 12:42:54;;;;;;;3.45;3.25;;;;;;;;;;5049634;28;20473;-62
2023/11/29 12:45:24;;;;;;;2.80;2.60;;;;;;;;;;5049975;28;20326;-62
2023/11/29 12:47:53;;;;;;;3.67;3.42;;;;;;;;;;5045938;28;20056;-61
2023/11/29 12:50:21;;;;;;;3.17;2.97;;;;;;;;;;5043065;28;21364;-63
2023/11/29 12:52:50;;;;;;;3.10;2.90;;;;;;;;;;5042271;28;20052;-63
2023/11/29 12:55:18;;;;;;;3.22;3.03;;;;;;;;;;5048943;28;20045;-61
2023/11/29 12:57:47;;;;;;;3.00;2.80;;;;;;;;;;5049141;28;20049;-62
2023/11/29 13:00:15;;;;;;;3.30;3.10;;;;;;;;;;5048113;28;20049;-61
2023/11/29 13:02:46;;;;;;;3.05;2.95;;;;;;;;;;5047558;28;20052;-63
2023/11/29 13:05:15;;;;;;;3.35;3.03;;;;;;;;;;5049242;28;20056;-60
2023/11/29 13:07:43;;;;;;;2.60;2.50;;;;;;;;;;5047428;28;20037;-61
2023/11/29 13:10:12;;;;;;;3.15;2.95;;;;;;;;;;5048120;28;20048;-60
2023/11/29 13:12:40;;;;;;;3.10;2.88;;;;;;;;;;5048252;28;20692;-60
2023/11/29 13:15:09;;;;;;;3.80;3.60;;;;;;;;;;5044055;28;20060;-62
2023/11/29 13:17:38;;;;;;;3.70;3.40;;;;;;;;;;5045488;28;20052;-64
2023/11/29 13:20:09;;;;;;;3.55;3.03;;;;;;;;;;5048320;28;20375;-61
2023/11/29 13:22:37;;;;;;;3.08;2.88;;;;;;;;;;5046355;28;20049;-61
2023/11/29 13:25:06;;;;;;;2.88;2.67;;;;;;;;;;5045442;28;20048;-62
2023/11/29 13:27:34;;;;;;;3.15;3.03;;;;;;;;;;5046068;28;20103;-63
2023/11/29 13:30:03;;;;;;;3.38;3.17;;;;;;;;;;5038030;28;20571;-61
2023/11/29 13:32:32;;;;;;;3.60;3.40;;;;;;;;;;5044461;28;20056;-59
2023/11/29 13:35:00;;;;;;;3.40;3.20;;;;;;;;;;5048672;28;20107;-60
2023/11/29 13:37:31;;;;;;;3.65;3.45;;;;;;;;;;5044871;28;20068;-61
2023/11/29 13:39:59;;;;;;;3.22;3.03;;;;;;;;;;5046866;28;20057;-61
2023/11/29 13:42:27;;;;;;;2.78;2.67;;;;;;;;;;5040810;28;20494;-61
2023/11/29 13:44:57;;;;;;;3.13;2.92;;;;;;;;;;5048673;28;20540;-61
2023/11/29 13:47:25;;;;;;;2.95;2.85;;;;;;;;;;5048052;28;20546;-60
2023/11/29 13:49:54;;;;;;;2.70;2.60;;;;;;;;;;5045497;28;20131;-63
2023/11/29 13:52:22;;;;;;;3.47;2.90;;;;;;;;;;5045145;28;20124;-60
2023/11/29 13:54:54;;;;;;;3.58;3.28;;;;;;;;;;5043297;28;20056;-60
2023/11/29 13:57:23;;;;;;;3.10;2.90;;;;;;;;;;5039475;28;20055;-62
2023/11/29 13:59:51;;;;;;;3.63;3.42;;;;;;;;;;5033494;28;20111;-63
2023/11/29 14:02:20;;;;;;;3.75;3.45;;;;;;;;;;5032543;28;20045;-61
2023/11/29 14:04:48;;;;;;;3.47;3.28;;;;;;;;;;5044304;28;20045;-61
2023/11/29 14:07:18;;;;;;;3.00;2.80;;;;;;;;;;5043917;28;20095;-60
2023/11/29 14:09:46;;;;;;;3.00;2.80;;;;;;;;;;5038718;28;20139;-63
2023/11/29 14:12:16;;;;;;;3.00;2.88;;;;;;;;;;5046740;28;20048;-62
2023/11/29 14:14:44;;;;;;;2.83;2.72;;;;;;;;;;5045877;28;20494;-61
2023/11/29 14:17:12;;;;;;;2.88;2.78;;;;;;;;;;5046545;28;20139;-63
2023/11/29 14:19:41;;;;;;;3.28;2.97;;;;;;;;;;5046101;28;20368;-61
2023/11/29 14:22:10;;;;;;;3.03;2.83;;;;;;;;;;5041402;28;20584;-62
2023/11/29 14:24:38;;;;;;;3.25;3.05;;;;;;;;;;5046430;28;20041;-61
2023/11/29 14:27:07;;;;;;;3.20;3.00;;;;;;;;;;5044000;28;20051;-61
2023/11/29 14:29:37;;;;;;;3.20;3.00;;;;;;;;;;5044886;28;20510;-60
2023/11/29 14:32:06;;;;;;;2.70;2.60;;;;;;;;;;5039486;28;20063;-61
2023/11/29 14:34:35;;;;;;;3.10;2.90;;;;;;;;;;5046379;28;20044;-61
2023/11/29 14:37:04;;;;;;;2.90;2.60;;;;;;;;;;5040809;28;20483;-62
2023/11/29 14:39:32;;;;;;;3.08;2.88;;;;;;;;;;5046059;28;20052;-59
2023/11/29 14:42:04;;;;;;;3.50;3.30;;;;;;;;;;5043419;28;20072;-61
2023/11/29 14:44:32;;;;;;;3.88;2.40;;;;;;;;;;5048540;28;20270;-62
2023/11/29 14:47:02;;;;;;;3.75;3.47;;;;;;;;;;5049387;28;20052;-62
2023/11/29 14:49:34;;;;;;;2.83;2.63;;;;;;;;;;5045256;28;20235;-62
2023/11/29 14:52:03;;;;;;;3.30;3.10;;;;;;;;;;5039694;28;20052;-64
2023/11/29 14:54:31;;;;;;;3.25;3.05;;;;;;;;;;5046927;28;20321;-60
2023/11/29 14:56:59;;;;;;;3.30;3.10;;;;;;;;;;5049630;28;20603;-60